createdAt,value
2022-08-19T00:01:31.474Z,101204.34
2022-08-19T00:03:59.858Z,101212.09
2022-08-19T00:06:28.221Z,101210.78
2022-08-19T00:08:56.394Z,101207.84
2022-08-19T00:11:26.324Z,101211.38
2022-08-19T00:13:54.083Z,101210.06
2022-08-19T00:16:26.131Z,101206.88
2022-08-19T00:18:54.705Z,101208.53
2022-08-19T00:21:22.370Z,101212.53
2022-08-19T00:23:49.946Z,101211.97
2022-08-19T00:26:18.168Z,101200.69
2022-08-19T00:28:47.976Z,101199.38
2022-08-19T00:31:17.140Z,101204.31
2022-08-19T00:33:45.073Z,101188.19
2022-08-19T00:36:13.632Z,101189.13
2022-08-19T00:38:44.231Z,101195.22
2022-08-19T00:41:15.419Z,101189.06
2022-08-19T00:43:43.122Z,101190.81
2022-08-19T00:46:12.064Z,101177.28
2022-08-19T00:48:39.701Z,101186.63
2022-08-19T00:51:07.982Z,101180.47
2022-08-19T00:53:35.998Z,101173.19
2022-08-19T00:56:07.106Z,101174.50
2022-08-19T00:58:36.110Z,101176.88
2022-08-19T01:01:05.205Z,101187.09
2022-08-19T01:03:56.966Z,101183.00
2022-08-19T01:06:22.289Z,101190.28
2022-08-19T01:08:50.297Z,101179.00
2022-08-19T01:11:18.685Z,101184.75
2022-08-19T01:13:50.042Z,101179.34
2022-08-19T01:16:20.802Z,101180.78
2022-08-19T01:18:50.454Z,101181.00
2022-08-19T01:21:22.758Z,101181.34
2022-08-19T01:23:52.210Z,101176.00
2022-08-19T01:26:22.680Z,101173.03
2022-08-19T01:28:54.314Z,101177.28
2022-08-19T01:31:30.329Z,101166.97
2022-08-19T01:34:01.629Z,101174.94
2022-08-19T01:36:32.200Z,101162.31
2022-08-19T01:39:01.985Z,101167.13
2022-08-19T01:41:29.678Z,101167.69
2022-08-19T01:44:17.055Z,101181.19
2022-08-19T01:46:45.877Z,101176.72
2022-08-19T01:49:13.469Z,101179.56
2022-08-19T01:51:41.052Z,101180.69
2022-08-19T01:54:11.341Z,101182.34
2022-08-19T01:56:39.194Z,101186.44
2022-08-19T01:59:12.487Z,101187.50
2022-08-19T02:01:40.180Z,101187.75
2022-08-19T02:04:08.010Z,101178.91
2022-08-19T02:06:35.638Z,101174.69
2022-08-19T02:09:03.811Z,101173.97
2022-08-19T02:11:36.253Z,101171.75
2022-08-19T02:14:06.602Z,101162.00
2022-08-19T02:16:35.094Z,101157.78
2022-08-19T02:19:02.718Z,101158.59
2022-08-19T02:21:31.776Z,101152.38
2022-08-19T02:23:59.417Z,101166.50
2022-08-19T02:26:28.342Z,101154.59
2022-08-19T02:28:57.528Z,101155.69
2022-08-19T02:31:28.782Z,101139.81
2022-08-19T02:33:57.232Z,101141.38
2022-08-19T02:36:26.272Z,101139.50
2022-08-19T02:38:54.992Z,101141.63
2022-08-19T02:41:26.829Z,101135.19
2022-08-19T02:44:30.561Z,101137.44
2022-08-19T02:46:45.657Z,101153.28
2022-08-19T02:49:13.329Z,101148.47
2022-08-19T02:51:42.901Z,101148.47
2022-08-19T02:54:11.716Z,101147.75
2022-08-19T02:56:40.876Z,101144.25
2022-08-19T02:59:11.237Z,101148.94
2022-08-19T03:01:41.889Z,101142.84
2022-08-19T03:04:13.753Z,101138.88
2022-08-19T03:06:42.553Z,101143.00
2022-08-19T03:09:11.606Z,101147.09
2022-08-19T03:11:39.741Z,101145.44
2022-08-19T03:14:09.072Z,101133.59
2022-08-19T03:16:44.084Z,101139.34
2022-08-19T03:19:13.080Z,101134.19
2022-08-19T03:21:40.702Z,101141.81
2022-08-19T03:24:10.889Z,101136.66
2022-08-19T03:26:41.158Z,101137.69
2022-08-19T03:29:11.525Z,101140.50
2022-08-19T03:31:52.408Z,101134.28
2022-08-19T03:34:27.188Z,101136.41
2022-08-19T03:36:56.211Z,101135.38
2022-08-19T03:39:25.086Z,101135.59
2022-08-19T03:42:31.724Z,101145.56
2022-08-19T03:44:43.201Z,101137.72
2022-08-19T03:47:16.097Z,101129.25
2022-08-19T03:49:45.144Z,101122.81
2022-08-19T03:52:13.010Z,101123.03
2022-08-19T03:54:40.624Z,101132.88
2022-08-19T03:57:09.841Z,101143.69
2022-08-19T03:59:39.005Z,101131.22
2022-08-19T04:02:10.688Z,101142.28
2022-08-19T04:04:39.300Z,101145.69
2022-08-19T04:07:09.225Z,101143.22
2022-08-19T04:09:38.097Z,101148.38
2022-08-19T04:12:07.560Z,101153.66
2022-08-19T04:14:36.209Z,101157.88
2022-08-19T04:17:06.335Z,101165.97
2022-08-19T04:19:35.745Z,101163.16
2022-08-19T04:22:03.703Z,101172.53
2022-08-19T04:24:33.037Z,101177.47
2022-08-19T04:27:01.713Z,101184.50
2022-08-19T04:29:29.818Z,101180.28
2022-08-19T04:31:58.131Z,101188.59
2022-08-19T04:34:28.093Z,101190.25
2022-08-19T04:36:58.367Z,101196.00
2022-08-19T04:39:49.118Z,101198.59
2022-08-19T04:42:37.577Z,101206.22
2022-08-19T04:45:06.368Z,101210.53
2022-08-19T04:47:47.638Z,101209.25
2022-08-19T04:50:25.601Z,101211.25
2022-08-19T04:52:54.255Z,101222.28
2022-08-19T04:55:22.145Z,101224.75
2022-08-19T04:57:51.671Z,101228.75
2022-08-19T05:00:19.575Z,101224.41
2022-08-19T05:02:47.278Z,101224.06
2022-08-19T05:05:14.993Z,101220.66
2022-08-19T05:07:43.138Z,101235.22
2022-08-19T05:10:12.464Z,101238.50
2022-08-19T05:12:40.201Z,101241.09
2022-08-19T05:15:10.328Z,101242.59
2022-08-19T05:17:39.133Z,101244.94
2022-08-19T05:20:26.090Z,101251.16
2022-08-19T05:22:53.924Z,101249.53
2022-08-19T05:25:23.301Z,101243.06
2022-08-19T05:27:51.269Z,101248.13
2022-08-19T05:30:33.407Z,101250.00
2022-08-19T05:33:10.305Z,101246.13
2022-08-19T05:35:38.141Z,101252.13
2022-08-19T05:38:05.885Z,101249.91
2022-08-19T05:40:35.346Z,101255.50
2022-08-19T05:43:02.920Z,101246.22
2022-08-19T05:45:31.926Z,101253.88
2022-08-19T05:48:00.139Z,101252.59
2022-08-19T05:50:27.728Z,101250.13
2022-08-19T05:52:55.416Z,101238.13
2022-08-19T05:55:23.519Z,101248.47
2022-08-19T05:57:51.104Z,101254.34
2022-08-19T06:00:22.725Z,101248.50
2022-08-19T06:02:55.560Z,101242.16
2022-08-19T06:05:23.334Z,101249.91
2022-08-19T06:07:50.887Z,101244.59
2022-08-19T06:10:18.490Z,101245.19
2022-08-19T06:12:46.138Z,101244.97
2022-08-19T06:15:15.545Z,101240.13
2022-08-19T06:17:45.234Z,101243.19
2022-08-19T06:20:17.772Z,101238.97
2022-08-19T06:22:50.052Z,101238.69
2022-08-19T06:25:18.601Z,101230.47
2022-08-19T06:28:13.372Z,101238.09
2022-08-19T06:30:34.396Z,101233.75
2022-08-19T06:33:01.949Z,101235.41
2022-08-19T06:35:31.100Z,101231.88
2022-08-19T06:37:58.827Z,101241.53
2022-08-19T06:40:26.464Z,101242.97
2022-08-19T06:42:55.546Z,101247.06
2022-08-19T06:45:24.970Z,101245.75
2022-08-19T06:47:56.686Z,101248.22
2022-08-19T06:50:25.162Z,101249.38
2022-08-19T06:52:55.251Z,101237.19
2022-08-19T06:55:23.111Z,101240.56
2022-08-19T06:57:54.178Z,101243.72
2022-08-19T07:00:22.239Z,101254.53
2022-08-19T07:02:53.342Z,101254.06
2022-08-19T07:05:25.064Z,101250.97
2022-08-19T07:07:54.010Z,101258.13
2022-08-19T07:10:26.103Z,101244.03
2022-08-19T07:12:54.719Z,101252.03
2022-08-19T07:15:22.566Z,101240.28
2022-08-19T07:17:52.803Z,101249.56
2022-08-19T07:20:21.106Z,101256.59
2022-08-19T07:22:49.075Z,101256.50
2022-08-19T07:25:18.796Z,101263.69
2022-08-19T07:27:46.584Z,101264.53
2022-08-19T07:30:23.296Z,101266.75
2022-08-19T07:32:53.932Z,101273.16
2022-08-19T07:35:21.518Z,101277.19
2022-08-19T07:37:49.377Z,101274.44
2022-08-19T07:40:18.412Z,101282.41
2022-08-19T07:42:46.033Z,101277.09
2022-08-19T07:45:13.957Z,101283.31
2022-08-19T07:47:50.424Z,101270.06
2022-08-19T07:50:20.720Z,101272.75
2022-08-19T07:52:50.345Z,101276.38
2022-08-19T07:55:40.321Z,101274.50
2022-08-19T07:58:08.673Z,101279.28
2022-08-19T08:00:36.977Z,101278.31
2022-08-19T08:03:04.597Z,101288.19
2022-08-19T08:05:49.520Z,101294.28
2022-08-19T08:08:34.752Z,101301.97
2022-08-19T08:11:03.724Z,101298.19
2022-08-19T08:13:36.148Z,101304.31
2022-08-19T08:16:04.557Z,101306.69
2022-08-19T08:18:32.201Z,101314.72
2022-08-19T08:21:00.266Z,101299.97
2022-08-19T08:23:28.047Z,101304.59
2022-08-19T08:25:59.818Z,101299.66
2022-08-19T08:28:30.554Z,101306.34
2022-08-19T08:30:59.341Z,101314.72
2022-08-19T08:33:34.837Z,101304.97
2022-08-19T08:36:03.950Z,101312.69
2022-08-19T08:38:38.383Z,101308.00
2022-08-19T08:41:15.105Z,101315.06
2022-08-19T08:43:48.182Z,101311.75
2022-08-19T08:46:31.410Z,101318.94
2022-08-19T08:49:08.258Z,101316.13
2022-08-19T08:54:19.746Z,101325.06
2022-08-19T08:56:49.382Z,101314.81
2022-08-19T08:59:23.813Z,101315.63
2022-08-19T09:01:51.435Z,101312.88
2022-08-19T09:04:19.744Z,101315.91
2022-08-19T09:06:56.913Z,101322.44
2022-08-19T09:09:33.198Z,101312.38
2022-08-19T09:12:11.863Z,101313.13
2022-08-19T09:14:51.538Z,101310.91
2022-08-19T09:17:21.840Z,101312.63
2022-08-19T09:19:53.233Z,101317.09
2022-08-19T09:22:25.425Z,101318.03
2022-08-19T09:24:55.253Z,101313.72
2022-08-19T09:27:43.217Z,101319.06
2022-08-19T09:30:16.616Z,101314.59
2022-08-19T09:32:45.538Z,101318.91
2022-08-19T09:35:15.217Z,101319.41
2022-08-19T09:37:43.619Z,101318.34
2022-08-19T09:40:13.183Z,101314.50
2022-08-19T09:42:49.785Z,101318.84
2022-08-19T09:45:22.771Z,101328.47
2022-08-19T09:47:51.960Z,101323.22
2022-08-19T09:50:20.032Z,101326.75
2022-08-19T09:52:55.627Z,101329.34
2022-08-19T09:55:31.631Z,101322.75
2022-08-19T09:58:02.186Z,101333.31
2022-08-19T10:00:32.675Z,101335.38
2022-08-19T10:03:00.286Z,101331.19
2022-08-19T10:05:48.572Z,101330.13
2022-08-19T10:08:17.433Z,101332.66
2022-08-19T10:10:46.225Z,101319.91
2022-08-19T10:13:15.887Z,101326.63
2022-08-19T10:15:48.111Z,101326.38
2022-08-19T10:18:19.087Z,101321.84
2022-08-19T10:20:51.459Z,101329.06
2022-08-19T10:23:21.022Z,101319.38
2022-08-19T10:25:49.195Z,101326.66
2022-08-19T10:28:19.467Z,101315.44
2022-08-19T10:30:49.372Z,101311.53
2022-08-19T10:33:40.809Z,101325.56
2022-08-19T10:36:08.500Z,101319.25
2022-08-19T10:38:36.604Z,101317.69
2022-08-19T10:41:12.417Z,101308.50
2022-08-19T10:43:40.770Z,101314.94
2022-08-19T10:46:14.221Z,101307.97
2022-08-19T10:48:45.247Z,101317.81
2022-08-19T10:51:30.719Z,101309.59
2022-08-19T10:53:59.001Z,101306.59
2022-08-19T10:56:44.751Z,101302.94
2022-08-19T10:59:12.919Z,101301.47
2022-08-19T11:01:43.632Z,101304.78
2022-08-19T11:04:14.439Z,101305.69
2022-08-19T11:06:42.320Z,101315.84
2022-08-19T11:09:11.749Z,101315.16
2022-08-19T11:11:41.853Z,101307.75
2022-08-19T11:14:10.352Z,101298.31
2022-08-19T11:16:39.943Z,101303.84
2022-08-19T11:19:10.546Z,101297.19
2022-08-19T11:21:40.509Z,101292.56
2022-08-19T11:24:11.092Z,101290.09
2022-08-19T11:26:40.388Z,101294.72
2022-08-19T11:29:12.270Z,101286.28
2022-08-19T11:31:42.734Z,101296.03
2022-08-19T11:34:14.162Z,101287.31
2022-08-19T11:36:45.740Z,101288.69
2022-08-19T11:39:16.178Z,101285.44
2022-08-19T11:41:44.073Z,101285.72
2022-08-19T11:44:11.894Z,101290.34
2022-08-19T11:46:40.294Z,101286.31
2022-08-19T11:49:13.807Z,101283.22
2022-08-19T11:51:44.329Z,101285.09
2022-08-19T11:54:13.638Z,101281.28
2022-08-19T11:56:42.465Z,101274.88
2022-08-19T11:59:14.612Z,101268.28
2022-08-19T12:01:44.177Z,101278.09
2022-08-19T12:04:12.391Z,101272.31
2022-08-19T12:06:43.352Z,101272.28
2022-08-19T12:09:12.395Z,101271.44
2022-08-19T12:11:41.419Z,101271.81
2022-08-19T12:14:14.511Z,101271.88
2022-08-19T12:16:49.120Z,101283.47
2022-08-19T12:19:22.277Z,101276.13
2022-08-19T12:21:53.858Z,101286.72
2022-08-19T12:24:24.163Z,101291.91
2022-08-19T12:26:53.986Z,101278.28
2022-08-19T12:29:23.925Z,101277.56
2022-08-19T12:31:51.713Z,101285.47
2022-08-19T12:34:20.888Z,101288.19
2022-08-19T12:36:50.113Z,101293.94
2022-08-19T12:39:19.299Z,101287.38
2022-08-19T12:41:54.698Z,101284.63
2022-08-19T12:44:29.616Z,101284.38
2022-08-19T12:47:01.560Z,101289.28
2022-08-19T12:49:53.596Z,101282.47
2022-08-19T12:52:23.353Z,101282.19
2022-08-19T12:54:54.567Z,101276.22
2022-08-19T12:57:24.394Z,101278.34
2022-08-19T13:00:00.205Z,101280.75
2022-08-19T13:02:28.038Z,101270.38
2022-08-19T13:04:55.712Z,101269.53
2022-08-19T13:07:23.326Z,101277.16
2022-08-19T13:09:54.602Z,101282.09
2022-08-19T13:12:25.022Z,101284.84
2022-08-19T13:14:53.005Z,101280.19
2022-08-19T13:17:20.624Z,101278.56
2022-08-19T13:19:48.317Z,101280.28
2022-08-19T13:22:15.912Z,101273.75
2022-08-19T13:24:47.272Z,101280.59
2022-08-19T13:27:16.584Z,101272.94
2022-08-19T13:30:01.808Z,101278.38
2022-08-19T13:32:48.920Z,101288.22
2022-08-19T13:35:17.490Z,101279.19
2022-08-19T13:37:46.254Z,101277.28
2022-08-19T13:40:18.282Z,101272.38
2022-08-19T13:42:49.177Z,101268.00
2022-08-19T13:45:18.901Z,101270.19
2022-08-19T13:47:48.204Z,101272.63
2022-08-19T13:50:18.345Z,101274.81
2022-08-19T13:52:46.521Z,101270.72
2022-08-19T13:55:15.218Z,101272.91
2022-08-19T13:57:53.808Z,101265.84
2022-08-19T14:00:23.368Z,101263.69
2022-08-19T14:02:53.784Z,101261.19
2022-08-19T14:05:22.757Z,101263.59
2022-08-19T14:07:50.780Z,101261.25
2022-08-19T14:10:19.732Z,101257.31
2022-08-19T14:12:48.233Z,101258.03
2022-08-19T14:15:17.995Z,101252.69
2022-08-19T14:17:47.531Z,101250.16
2022-08-19T14:20:17.843Z,101252.50
2022-08-19T14:22:47.505Z,101241.81
2022-08-19T14:25:17.073Z,101239.78
2022-08-19T14:27:45.365Z,101249.84
2022-08-19T14:30:18.109Z,101243.63
2022-08-19T14:32:45.801Z,101237.16
2022-08-19T14:35:15.741Z,101239.53
2022-08-19T14:37:56.515Z,101235.66
2022-08-19T14:40:27.535Z,101244.19
2022-08-19T14:43:00.217Z,101241.22
2022-08-19T14:45:30.725Z,101254.16
2022-08-19T14:48:00.200Z,101243.94
2022-08-19T14:50:28.597Z,101246.75
2022-08-19T14:53:04.372Z,101245.44
2022-08-19T14:55:36.880Z,101248.78
2022-08-19T14:58:05.066Z,101244.19
2022-08-19T15:00:37.956Z,101240.47
2022-08-19T15:03:05.518Z,101237.63
2022-08-19T15:05:33.282Z,101237.38
2022-08-19T15:08:05.037Z,101236.06
2022-08-19T15:10:32.625Z,101238.78
2022-08-19T15:13:00.289Z,101240.44
2022-08-19T15:15:28.636Z,101247.22
2022-08-19T15:18:03.108Z,101238.75
2022-08-19T15:20:31.628Z,101244.47
2022-08-19T15:22:59.536Z,101246.81
2022-08-19T15:25:27.924Z,101237.97
2022-08-19T15:27:55.574Z,101236.00
2022-08-19T15:30:26.456Z,101226.81
2022-08-19T15:32:55.488Z,101219.00
2022-08-19T15:35:25.546Z,101221.44
2022-08-19T15:37:54.326Z,101224.72
2022-08-19T15:40:23.527Z,101229.63
2022-08-19T15:42:51.690Z,101215.53
2022-08-19T15:45:21.645Z,101222.91
2022-08-19T15:47:49.517Z,101227.72
2022-08-19T15:50:21.170Z,101225.50
2022-08-19T15:52:53.102Z,101227.25
2022-08-19T15:55:32.689Z,101222.78
2022-08-19T15:58:21.896Z,101231.34
2022-08-19T16:01:13.420Z,101234.53
2022-08-19T16:04:04.003Z,101222.66
2022-08-19T16:06:32.885Z,101222.31
2022-08-19T16:09:04.440Z,101229.78
2022-08-19T16:11:39.439Z,101232.16
2022-08-19T16:14:09.177Z,101234.25
2022-08-19T16:16:38.319Z,101239.84
2022-08-19T16:19:11.962Z,101242.00
2022-08-19T16:21:41.995Z,101236.19
2022-08-19T16:24:13.573Z,101242.38
2022-08-19T16:26:42.037Z,101239.59
2022-08-19T16:29:12.185Z,101241.47
2022-08-19T16:31:42.215Z,101249.59
2022-08-19T16:34:10.284Z,101248.22
2022-08-19T16:36:42.129Z,101253.09
2022-08-19T16:39:12.198Z,101251.59
2022-08-19T16:41:40.396Z,101246.44
2022-08-19T16:44:09.661Z,101248.75
2022-08-19T16:46:39.720Z,101251.81
2022-08-19T16:49:08.412Z,101255.69
2022-08-19T16:51:36.335Z,101251.13
2022-08-19T16:54:04.967Z,101247.38
2022-08-19T16:56:33.993Z,101247.38
2022-08-19T16:59:01.638Z,101252.59
2022-08-19T17:01:30.604Z,101241.50
2022-08-19T17:03:58.629Z,101239.13
2022-08-19T17:06:31.165Z,101239.44
2022-08-19T17:09:00.808Z,101240.88
2022-08-19T17:11:32.853Z,101246.34
2022-08-19T17:14:02.877Z,101235.44
2022-08-19T17:16:33.137Z,101239.84
2022-08-19T17:19:03.569Z,101238.81
2022-08-19T17:21:33.872Z,101240.22
2022-08-19T17:24:04.613Z,101238.38
2022-08-19T17:26:32.729Z,101243.06
2022-08-19T17:29:01.792Z,101242.03
2022-08-19T17:31:31.274Z,101235.25
2022-08-19T17:33:59.177Z,101238.03
2022-08-19T17:36:29.178Z,101244.59
2022-08-19T17:38:58.308Z,101246.53
2022-08-19T17:41:27.038Z,101241.88
2022-08-19T17:43:55.281Z,101241.03
2022-08-19T17:46:24.335Z,101245.97
2022-08-19T17:48:55.046Z,101236.41
2022-08-19T17:51:26.610Z,101236.44
2022-08-19T17:53:55.713Z,101233.97
2022-08-19T17:56:23.910Z,101232.34
2022-08-19T17:59:00.209Z,101235.06
2022-08-19T18:01:43.805Z,101229.88
2022-08-19T18:04:18.833Z,101238.84
2022-08-19T18:06:53.078Z,101231.75
2022-08-19T18:09:23.981Z,101235.53
2022-08-19T18:11:53.373Z,101232.50
2022-08-19T18:14:28.080Z,101233.53
2022-08-19T18:17:02.812Z,101228.34
2022-08-19T18:19:41.525Z,101235.66
2022-08-19T18:22:09.713Z,101236.66
2022-08-19T18:24:38.824Z,101239.03
2022-08-19T18:27:06.792Z,101246.56
2022-08-19T18:29:38.049Z,101251.91
2022-08-19T18:32:12.443Z,101245.03
2022-08-19T18:34:41.043Z,101247.94
2022-08-19T18:37:08.649Z,101252.75
2022-08-19T18:39:54.117Z,101260.00
2022-08-19T18:42:39.523Z,101253.88
2022-08-19T18:45:25.884Z,101252.41
2022-08-19T18:48:24.029Z,101261.78
2022-08-19T18:50:54.277Z,101255.13
2022-08-19T18:53:21.851Z,101262.06
2022-08-19T18:55:53.806Z,101260.06
2022-08-19T18:58:25.951Z,101264.28
2022-08-19T19:00:55.805Z,101265.81
2022-08-19T19:03:25.195Z,101274.63
2022-08-19T19:05:53.094Z,101271.78
2022-08-19T19:08:27.076Z,101267.63
2022-08-19T19:10:55.874Z,101281.34
2022-08-19T19:13:23.481Z,101284.50
2022-08-19T19:15:51.545Z,101280.84
2022-08-19T19:18:19.162Z,101273.50
2022-08-19T19:20:48.101Z,101274.50
2022-08-19T19:23:15.674Z,101273.81
2022-08-19T19:25:51.036Z,101278.13
2022-08-19T19:28:23.827Z,101275.53
2022-08-19T19:30:52.312Z,101276.53
2022-08-19T19:33:20.237Z,101274.47
2022-08-19T19:35:49.457Z,101273.00
2022-08-19T19:38:17.218Z,101281.50
2022-08-19T19:40:45.445Z,101275.47
2022-08-19T19:43:13.035Z,101268.31
2022-08-19T19:45:41.181Z,101273.88
2022-08-19T19:48:09.348Z,101267.78
2022-08-19T19:50:36.940Z,101265.81
2022-08-19T19:53:06.314Z,101265.72
2022-08-19T19:55:33.886Z,101285.16
2022-08-19T19:58:01.481Z,101276.59
2022-08-19T20:00:29.806Z,101280.03
2022-08-19T20:02:57.433Z,101282.38
2022-08-19T20:05:25.771Z,101286.84
2022-08-19T20:08:12.561Z,101287.56
2022-08-19T20:10:43.646Z,101283.94
2022-08-19T20:13:11.772Z,101274.69
2022-08-19T20:15:43.349Z,101274.56
2022-08-19T20:18:12.021Z,101268.84
2022-08-19T20:20:40.080Z,101264.97
2022-08-19T20:23:07.985Z,101264.63
2022-08-19T20:25:35.608Z,101259.47
2022-08-19T20:28:05.736Z,101257.47
2022-08-19T20:30:34.003Z,101263.69
2022-08-19T20:33:06.740Z,101253.94
2022-08-19T20:35:36.106Z,101251.47
2022-08-19T20:38:04.792Z,101257.13
2022-08-19T20:40:34.082Z,101260.06
2022-08-19T20:43:01.780Z,101256.75
2022-08-19T20:45:33.887Z,101270.28
2022-08-19T20:48:02.806Z,101264.56
2022-08-19T20:50:31.221Z,101274.19
2022-08-19T20:52:59.305Z,101268.19
2022-08-19T20:55:28.277Z,101275.47
2022-08-19T20:57:56.422Z,101287.34
2022-08-19T21:00:24.139Z,101281.09
2022-08-19T21:02:53.045Z,101290.28
2022-08-19T21:05:20.625Z,101290.50
2022-08-19T21:07:48.189Z,101287.25
2022-08-19T21:10:16.532Z,101291.00
2022-08-19T21:12:44.507Z,101299.09
2022-08-19T21:15:12.418Z,101296.38
2022-08-19T21:17:40.187Z,101290.41
2022-08-19T21:20:10.419Z,101302.25
2022-08-19T21:22:38.000Z,101300.88
2022-08-19T21:25:07.045Z,101302.16
2022-08-19T21:27:34.741Z,101308.59
2022-08-19T21:30:02.318Z,101312.59
2022-08-19T21:32:29.901Z,101306.63
2022-08-19T21:34:57.760Z,101309.56
2022-08-19T21:37:26.725Z,101308.16
2022-08-19T21:39:54.511Z,101312.50
2022-08-19T21:42:22.848Z,101322.69
2022-08-19T21:44:50.446Z,101319.63
2022-08-19T21:47:18.435Z,101322.94
2022-08-19T21:49:46.099Z,101324.00
2022-08-19T21:52:13.818Z,101324.00
2022-08-19T21:54:42.997Z,101331.06
2022-08-19T21:57:11.073Z,101337.84
2022-08-19T21:59:39.601Z,101330.34
2022-08-19T22:02:19.436Z,101333.84
2022-08-19T22:04:48.020Z,101316.59
2022-08-19T22:07:15.701Z,101312.84
2022-08-19T22:09:46.220Z,101324.25
2022-08-19T22:12:26.529Z,101321.28
2022-08-19T22:14:54.437Z,101327.78
2022-08-19T22:17:23.315Z,101333.19
2022-08-19T22:19:52.421Z,101327.78
2022-08-19T22:22:25.184Z,101327.31
2022-08-19T22:24:56.077Z,101330.56
2022-08-19T22:27:23.729Z,101327.88
2022-08-19T22:29:52.662Z,101337.38
2022-08-19T22:32:28.106Z,101329.28
2022-08-19T22:34:58.592Z,101326.56
2022-08-19T22:37:27.096Z,101329.06
2022-08-19T22:39:56.367Z,101328.22
2022-08-19T22:42:25.243Z,101328.44
2022-08-19T22:45:00.027Z,101320.34
2022-08-19T22:47:32.166Z,101316.25
2022-08-19T22:50:03.225Z,101319.56
2022-08-19T22:52:31.630Z,101319.31
2022-08-19T22:55:03.456Z,101323.41
2022-08-19T22:57:31.052Z,101316.47
2022-08-19T22:59:58.841Z,101317.06
2022-08-19T23:02:32.021Z,101309.78
2022-08-19T23:05:02.266Z,101316.59
2022-08-19T23:07:29.853Z,101312.84
2022-08-19T23:09:57.714Z,101313.41
2022-08-19T23:12:31.925Z,101303.69
2022-08-19T23:15:03.060Z,101315.28
2022-08-19T23:17:30.644Z,101319.66
2022-08-19T23:19:59.581Z,101317.19
2022-08-19T23:22:27.363Z,101317.41
2022-08-19T23:24:56.110Z,101313.06
2022-08-19T23:27:41.550Z,101317.66
2022-08-19T23:30:27.048Z,101317.88
2022-08-19T23:32:55.489Z,101312.72
2022-08-19T23:35:24.229Z,101309.44
2022-08-19T23:37:52.557Z,101305.09
2022-08-19T23:40:22.112Z,101308.03
2022-08-19T23:42:50.916Z,101303.66
2022-08-19T23:45:23.916Z,101306.84
2022-08-19T23:47:53.307Z,101304.88
2022-08-19T23:50:22.666Z,101298.75
2022-08-19T23:52:52.563Z,101288.66
2022-08-19T23:55:23.591Z,101287.44
2022-08-19T23:57:51.197Z,101290.63
